Fleetwood, Pennsylvania
Current Conditions -  °F | °C
As of 8:54 AM on Wednesday 26 Nov 2014 (Local Time) from KRDG Reporting Station
Moderate Rain Moderate Rain  
Wind Chill: 30°   Ceiling: 800
Heat Index: 36°   Visibility: 4mi
Dew Point: 33°   Wind: 7mph
Humidity: 89%   Direction: 20°NNE
Pressure: 30.09"   Gusts: NA
Location:  40.45°N, 75.82°W
Report Text: KRDG 261354Z 02006KT 4SM RA BR BKN008 OVC027 02/01 A3009 RMK AO2 SLP197 P0011 T00220006
Loading
Personal Weather Stations






























Interactive Weather Map New forecast layout! Learn more

10-Day Weather Forecast

Advertisements
Track Severe Weather on mobile